Sikinos, Greece
Current Conditions -  °F | °C
As of 1:20 AM on Thursday 23 Oct 2014 (Local Time) from LGSR Reporting Station
NA  
Wind Chill: 72°   Ceiling: NA
Heat Index: 72°   Visibility: NA
Dew Point: 66°   Wind: 10mph
Humidity: 83%   Direction: 160°SSE
Pressure: 29.77"   Gusts: NA
Location:  36.69°N, 25.11°E
Report Text: LGSR 222220Z AUTO 16009KT //// // ////// 22/19 Q1008 RERA
Loading
Personal Weather Stations






























Interactive Weather Map
Tropical Storm Tracking
New forecast layout! Learn more

10-Day Weather Forecast

Advertisements
Track Severe Weather on mobile